Time;durP1;ratioP1;P1;durP2;ratioP2;P2;SDS_P1;SDS_P2;PMS_P1;PMS_P2;Temp;Humidity;BMP_temperature;BMP_pressure;BME280_temperature;BME280_humidity;BME280_pressure;Samples;Min_cycle;Max_cycle;Signal;HPM_P1;HPM_P2
2023/10/07 00:02:53;;;;;;;9.45;3.08;;;20.40;73.60;;;;;;6279157;22;20034;-65
2023/10/07 00:05:26;;;;;;;6.43;2.83;;;20.40;73.60;;;;;;6307355;22;20015;-65
2023/10/07 00:08:01;;;;;;;7.05;2.83;;;20.30;73.50;;;;;;6307653;22;20090;-65
2023/10/07 00:10:28;;;;;;;8.77;2.83;;;20.30;73.60;;;;;;6279277;22;20022;-65
2023/10/07 00:12:57;;;;;;;5.70;2.65;;;20.30;73.50;;;;;;6307418;22;20025;-65
2023/10/07 00:15:28;;;;;;;5.43;2.50;;;20.30;73.50;;;;;;6279359;22;20037;-65
2023/10/07 00:17:57;;;;;;;7.38;2.70;;;20.30;73.50;;;;;;6281005;22;20023;-65
2023/10/07 00:20:23;;;;;;;7.28;3.00;;;20.30;73.50;;;;;;6280274;22;20024;-65
2023/10/07 00:22:57;;;;;;;7.22;2.67;;;20.30;73.50;;;;;;6279780;22;20015;-65
2023/10/07 00:25:22;;;;;;;7.70;2.90;;;20.30;73.50;;;;;;6280665;22;20518;-65
2023/10/07 00:27:48;;;;;;;4.93;2.70;;;20.30;73.50;;;;;;6280055;22;20057;-65
2023/10/07 00:30:22;;;;;;;6.38;2.40;;;20.30;73.50;;;;;;6306397;22;20095;-65
2023/10/07 00:32:50;;;;;;;7.65;2.63;;;20.30;73.50;;;;;;6280784;22;20019;-65
2023/10/07 00:35:19;;;;;;;5.55;2.47;;;20.30;73.50;;;;;;6280589;22;20019;-66
2023/10/07 00:37:45;;;;;;;6.40;2.70;;;20.30;73.50;;;;;;6279825;22;20011;-65
2023/10/07 00:40:14;;;;;;;7.03;2.75;;;20.30;73.50;;;;;;6280201;22;20042;-65
2023/10/07 00:42:45;;;;;;;6.47;2.38;;;20.30;73.50;;;;;;6308181;22;20012;-65
2023/10/07 00:45:16;;;;;;;5.70;2.80;;;20.30;73.50;;;;;;6279161;22;20051;-65
2023/10/07 00:47:49;;;;;;;5.25;2.40;;;20.30;73.50;;;;;;6279757;22;20061;-65
2023/10/07 00:50:15;;;;;;;6.20;2.70;;;20.30;73.50;;;;;;6279178;22;20026;-65
2023/10/07 00:52:46;;;;;;;7.63;2.80;;;20.30;73.50;;;;;;6307894;22;20320;-65
2023/10/07 00:55:24;;;;;;;7.28;2.63;;;20.30;73.50;;;;;;6256128;22;20106;-65
2023/10/07 00:57:54;;;;;;;7.13;2.15;;;20.30;73.50;;;;;;6282035;22;20026;-64
2023/10/07 01:02:50;;;;;;;6.07;2.58;;;20.30;73.50;;;;;;6279371;22;20046;-65
2023/10/07 01:05:22;;;;;;;5.78;2.72;;;20.30;73.50;;;;;;6306404;22;20019;-65
2023/10/07 01:07:53;;;;;;;4.72;2.00;;;20.30;74.10;;;;;;6307910;22;20022;-65
2023/10/07 01:10:24;;;;;;;8.73;3.10;;;20.30;73.50;;;;;;6279252;22;20019;-65
2023/10/07 01:12:51;;;;;;;5.50;2.50;;;20.30;73.50;;;;;;6307031;22;20020;-65
2023/10/07 01:15:29;;;;;;;6.15;2.13;;;20.30;73.50;;;;;;6306541;22;20491;-65
2023/10/07 01:18:03;;;;;;;5.90;2.58;;;20.20;73.40;;;;;;6308064;22;20026;-65
2023/10/07 01:21:00;;;;;;;5.25;2.50;;;20.30;73.50;;;;;;6306476;22;20019;-65
2023/10/07 01:23:19;;;;;;;7.65;2.90;;;20.30;73.60;;;;;;6278918;22;20020;-64
2023/10/07 01:25:50;;;;;;;5.47;2.42;;;20.20;73.50;;;;;;6279050;22;20112;-64
2023/10/07 01:28:20;;;;;;;4.72;2.10;;;20.20;73.50;;;;;;6307556;22;20012;-65
2023/10/07 01:31:07;;;;;;;6.50;2.25;;;20.30;73.50;;;;;;6280265;22;20015;-65
2023/10/07 01:33:46;;;;;;;7.00;2.60;;;20.30;73.50;;;;;;6279177;22;20019;-64
2023/10/07 01:36:18;;;;;;;4.43;2.05;;;20.20;73.50;;;;;;6279037;22;20050;-65
2023/10/07 01:38:44;;;;;;;5.45;2.50;;;20.20;73.50;;;;;;6307727;22;20015;-65
2023/10/07 01:41:18;;;;;;;5.07;2.10;;;20.20;73.50;;;;;;6306212;22;20017;-64
2023/10/07 01:43:51;;;;;;;6.65;2.50;;;20.20;73.50;;;;;;6307521;22;20015;-65
2023/10/07 01:46:19;;;;;;;6.68;2.63;;;20.20;73.50;;;;;;6306579;22;20470;-65
2023/10/07 01:48:55;;;;;;;6.40;2.13;;;20.20;73.50;;;;;;6307105;22;20036;-65
2023/10/07 01:51:22;;;;;;;5.60;2.20;;;20.20;73.60;;;;;;6279191;22;20022;-65
2023/10/07 01:53:49;;;;;;;6.73;2.23;;;20.20;73.60;;;;;;6278431;22;20030;-65
2023/10/07 01:56:15;;;;;;;7.80;3.38;;;20.20;73.50;;;;;;6306440;22;20015;-64
2023/10/07 01:58:40;;;;;;;5.63;2.13;;;20.20;73.50;;;;;;6277944;22;20022;-65
2023/10/07 02:01:07;;;;;;;5.38;1.98;;;20.20;73.50;;;;;;6278335;22;20063;-65
2023/10/07 02:03:33;;;;;;;4.68;1.83;;;20.20;73.50;;;;;;6305708;22;20447;-65
2023/10/07 02:05:58;;;;;;;6.38;2.40;;;20.20;73.60;;;;;;6306794;22;20148;-65
2023/10/07 02:08:24;;;;;;;5.63;2.08;;;20.20;73.60;;;;;;6305754;22;20042;-65
2023/10/07 02:10:57;;;;;;;5.85;2.20;;;20.20;73.60;;;;;;6279564;22;20023;-65
2023/10/07 02:13:22;;;;;;;6.03;2.13;;;20.20;73.50;;;;;;6279602;22;20025;-65
2023/10/07 02:15:52;;;;;;;6.88;2.17;;;20.20;73.60;;;;;;6278627;22;20093;-65
2023/10/07 02:18:18;;;;;;;6.05;2.03;;;20.20;73.60;;;;;;6279337;22;20012;-65
2023/10/07 02:21:06;;;;;;;6.07;2.33;;;20.20;73.60;;;;;;6279550;22;20023;-65
2023/10/07 02:23:37;;;;;;;;;;;20.20;73.60;;;;;;6306337;22;20336;-65
2023/10/07 02:26:06;;;;;;;5.13;2.20;;;20.20;73.60;;;;;;6279461;22;19915;-64
2023/10/07 02:28:34;;;;;;;6.72;2.13;;;20.20;73.60;;;;;;6278530;22;20412;-65
2023/10/07 02:31:08;;;;;;;4.65;1.83;;;20.10;73.60;;;;;;6279513;22;20339;-65
2023/10/07 02:33:42;;;;;;;6.03;2.17;;;20.20;73.60;;;;;;6279556;22;20072;-64
2023/10/07 02:36:12;;;;;;;6.18;2.10;;;20.20;73.70;;;;;;6277939;22;20019;-65
2023/10/07 02:38:41;;;;;;;6.32;2.10;;;20.20;73.60;;;;;;6307339;22;20012;-65
2023/10/07 02:41:19;;;;;;;4.60;1.70;;;20.20;73.60;;;;;;6279579;22;20454;-64
2023/10/07 02:43:48;;;;;;;6.32;2.38;;;20.20;73.70;;;;;;6306376;22;20015;-65
2023/10/07 02:46:27;;;;;;;6.88;2.50;;;20.20;73.70;;;;;;6279126;22;20053;-65
2023/10/07 02:49:01;;;;;;;6.35;2.28;;;20.20;73.70;;;;;;6307312;22;20094;-65
2023/10/07 02:51:27;;;;;;;5.43;1.90;;;20.20;73.70;;;;;;6278315;22;20019;-65
2023/10/07 02:53:59;;;;;;;5.68;2.15;;;20.20;73.70;;;;;;6306085;22;20023;-65
2023/10/07 02:56:28;;;;;;;6.32;1.95;;;20.20;73.70;;;;;;6278908;22;20339;-65
2023/10/07 02:59:01;;;;;;;5.50;2.17;;;20.20;73.70;;;;;;6305595;22;20023;-65
2023/10/07 03:01:28;;;;;;;5.72;2.35;;;20.20;73.70;;;;;;6279059;22;20031;-65
2023/10/07 03:03:54;;;;;;;6.22;2.25;;;20.20;73.70;;;;;;6277873;22;20347;-64
2023/10/07 03:06:25;;;;;;;4.43;2.00;;;20.20;73.70;;;;;;6279131;22;20015;-65
2023/10/07 03:09:00;;;;;;;6.07;1.90;;;20.10;73.70;;;;;;6278746;22;20011;-64
2023/10/07 03:11:39;;;;;;;5.28;2.40;;;20.10;73.70;;;;;;6277406;22;20103;-65
2023/10/07 03:14:05;;;;;;;5.45;2.10;;;20.20;73.70;;;;;;6306735;22;20008;-65
2023/10/07 03:16:42;;;;;;;4.32;1.70;;;20.10;73.70;;;;;;6279140;22;20494;-65
2023/10/07 03:19:19;;;;;;;5.30;2.30;;;20.10;73.70;;;;;;6305676;22;20019;-65
2023/10/07 03:21:55;;;;;;;5.50;2.20;;;20.10;73.70;;;;;;6279707;22;20462;-65
2023/10/07 03:24:29;;;;;;;4.53;1.83;;;20.10;73.70;;;;;;6306528;22;20254;-65
2023/10/07 03:27:05;;;;;;;5.82;1.95;;;20.10;73.70;;;;;;6307206;22;20149;-65
2023/10/07 03:29:36;;;;;;;9.52;2.22;;;20.10;73.70;;;;;;6308675;22;20015;-65
2023/10/07 03:32:12;;;;;;;8.23;1.90;;;20.10;73.80;;;;;;6279605;22;20030;-65
2023/10/07 03:34:45;;;;;;;4.05;1.90;;;20.10;73.70;;;;;;6307891;22;20439;-65
2023/10/07 03:39:56;;;;;;;4.70;1.80;;;20.10;73.80;;;;;;6280061;22;20084;-65
2023/10/07 03:42:23;;;;;;;5.40;1.77;;;20.10;73.80;;;;;;6280852;22;20011;-65
2023/10/07 03:44:49;;;;;;;6.57;2.10;;;20.10;73.80;;;;;;6280828;22;20026;-65
2023/10/07 03:47:15;;;;;;;6.68;2.13;;;20.10;73.80;;;;;;6307522;22;20067;-65
2023/10/07 03:49:41;;;;;;;5.72;1.80;;;20.10;73.80;;;;;;6280753;22;20058;-65
2023/10/07 03:52:08;;;;;;;4.85;1.95;;;20.10;73.80;;;;;;6308700;22;20019;-65
2023/10/07 03:54:40;;;;;;;5.85;2.38;;;20.10;73.80;;;;;;6279412;22;20347;-65
2023/10/07 03:57:07;;;;;;;4.47;2.00;;;20.10;73.80;;;;;;6280998;22;20011;-65
2023/10/07 03:59:34;;;;;;;4.25;1.88;;;20.10;73.80;;;;;;6280680;22;20097;-65
2023/10/07 04:02:00;;;;;;;5.83;1.87;;;20.10;73.80;;;;;;6278110;22;20343;-65
2023/10/07 04:04:26;;;;;;;4.82;1.95;;;20.10;73.80;;;;;;6307469;22;20098;-65
2023/10/07 04:06:52;;;;;;;6.05;2.00;;;20.10;73.90;;;;;;6280227;22;20395;-65
2023/10/07 04:09:19;;;;;;;5.32;1.85;;;20.10;73.90;;;;;;6279589;22;20016;-64
2023/10/07 04:11:48;;;;;;;6.00;2.13;;;20.10;73.90;;;;;;6280924;22;20031;-65
2023/10/07 04:14:27;;;;;;;5.05;1.98;;;20.10;73.90;;;;;;6279560;22;20021;-66
2023/10/07 04:16:54;;;;;;;4.85;1.60;;;20.10;74.50;;;;;;6281231;22;20027;-65
2023/10/07 04:21:50;;;;;;;5.15;1.70;;;20.10;73.90;;;;;;6307707;22;20019;-65
2023/10/07 04:24:16;;;;;;;4.88;1.80;;;20.10;73.90;;;;;;6307689;22;20080;-64
2023/10/07 04:26:51;;;;;;;4.55;1.80;;;20.10;73.90;;;;;;6307831;22;20023;-65
2023/10/07 04:29:17;;;;;;;5.78;2.00;;;20.10;74.00;;;;;;6307576;22;20320;-65
2023/10/07 04:31:52;;;;;;;6.03;2.00;;;20.10;73.90;;;;;;6308419;22;20019;-65
2023/10/07 04:34:21;;;;;;;5.05;1.80;;;20.10;73.90;;;;;;6280223;22;20023;-65
2023/10/07 04:39:37;;;;;;;4.25;1.98;;;20.10;73.90;;;;;;6280149;22;20023;-65
2023/10/07 04:42:05;;;;;;;5.03;1.67;;;20.10;73.90;;;;;;6307466;22;20019;-65
2023/10/07 04:50:16;;;;;;;5.18;1.85;;;20.10;74.00;;;;;;6186708;23;20024;-65
2023/10/07 04:52:50;;;;;;;5.55;2.05;;;20.10;74.00;;;;;;6188226;23;20063;-65
2023/10/07 04:55:19;;;;;;;7.68;2.13;;;20.10;74.00;;;;;;6235141;22;20026;-65
2023/10/07 05:00:31;;;;;;;5.32;1.85;;;20.10;74.10;;;;;;6279231;22;20023;-65
2023/10/07 05:03:14;;;;;;;4.70;1.70;;;20.10;74.00;;;;;;6280118;22;20023;-65
2023/10/07 05:05:43;;;;;;;4.30;1.63;;;20.10;74.10;;;;;;6256012;22;20026;-65
2023/10/07 05:08:10;;;;;;;6.85;1.80;;;20.10;74.10;;;;;;6254987;22;20015;-65
2023/10/07 05:10:41;;;;;;;7.13;1.73;;;20.10;74.10;;;;;;6279078;22;20020;-64
2023/10/07 05:13:07;;;;;;;4.32;1.92;;;20.10;74.10;;;;;;6280278;22;20019;-65
2023/10/07 05:15:41;;;;;;;5.78;1.92;;;20.10;74.10;;;;;;6279791;22;20110;-65
2023/10/07 05:18:07;;;;;;;5.80;2.28;;;20.10;74.10;;;;;;6279373;22;20057;-65
2023/10/07 05:20:36;;;;;;;5.35;1.90;;;20.10;74.10;;;;;;6280117;22;20355;-65
2023/10/07 05:23:02;;;;;;;8.52;2.03;;;20.10;74.10;;;;;;6280083;22;20015;-64
2023/10/07 05:25:27;;;;;;;4.70;1.92;;;20.10;74.10;;;;;;6278755;22;20019;-65
2023/10/07 05:27:54;;;;;;;5.28;1.90;;;20.10;74.10;;;;;;6279376;22;20319;-66
2023/10/07 05:30:21;;;;;;;8.50;2.22;;;20.20;74.20;;;;;;6279239;22;20019;-63
2023/10/07 05:32:47;;;;;;;5.45;2.00;;;20.10;74.10;;;;;;6279126;22;20064;-64
2023/10/07 05:35:18;;;;;;;6.43;1.85;;;20.20;74.20;;;;;;6306854;22;20343;-64
2023/10/07 05:37:47;;;;;;;7.20;2.03;;;20.20;74.30;;;;;;6280080;22;20021;-63
2023/10/07 05:40:15;;;;;;;8.15;2.00;;;20.10;74.20;;;;;;6278577;22;20110;-64
2023/10/07 05:42:40;;;;;;;6.75;2.15;;;20.20;74.30;;;;;;6279934;22;20381;-63
2023/10/07 05:45:07;;;;;;;6.93;1.90;;;20.20;74.40;;;;;;6307382;22;20056;-63
2023/10/07 05:47:33;;;;;;;5.93;1.90;;;20.20;74.70;;;;;;6279017;22;20015;-64
2023/10/07 05:50:00;;;;;;;6.82;2.10;;;20.20;74.70;;;;;;6307386;22;20038;-63
2023/10/07 05:52:28;;;;;;;8.70;2.03;;;20.20;74.70;;;;;;6279626;22;20428;-64
2023/10/07 05:54:56;;;;;;;7.00;2.20;;;20.20;74.70;;;;;;6279369;22;20383;-63
2023/10/07 05:57:25;;;;;;;6.85;1.73;;;20.20;74.90;;;;;;6278149;22;20011;-63
2023/10/07 05:59:51;;;;;;;6.47;2.65;;;20.20;74.80;;;;;;6276098;22;20031;-63
2023/10/07 06:02:17;;;;;;;7.38;2.10;;;20.20;74.90;;;;;;6277577;22;20011;-64
2023/10/07 06:04:44;;;;;;;7.47;2.15;;;20.20;74.90;;;;;;6279305;22;20149;-64
2023/10/07 06:07:12;;;;;;;6.65;2.22;;;20.20;74.90;;;;;;6278657;22;20022;-64
2023/10/07 06:09:41;;;;;;;6.32;1.85;;;20.20;74.90;;;;;;6279803;22;20023;-64
2023/10/07 06:12:09;;;;;;;5.45;1.92;;;20.30;74.90;;;;;;6279678;22;20007;-63
2023/10/07 06:14:35;;;;;;;6.97;1.60;;;20.30;74.90;;;;;;6278634;22;20031;-65
2023/10/07 06:17:00;;;;;;;7.05;2.25;;;20.30;74.90;;;;;;6279784;22;20496;-63
2023/10/07 06:19:26;;;;;;;6.45;1.98;;;20.30;74.90;;;;;;6306136;22;20019;-64
2023/10/07 06:21:52;;;;;;;5.63;2.10;;;20.30;74.80;;;;;;6306368;22;20076;-64
2023/10/07 06:24:26;;;;;;;6.70;2.15;;;20.30;74.80;;;;;;6279348;22;20018;-64
2023/10/07 06:26:55;;;;;;;8.77;2.72;;;20.30;74.90;;;;;;6307394;22;20026;-65
2023/10/07 06:29:21;;;;;;;8.05;2.20;;;20.30;74.90;;;;;;6306090;22;20022;-65
2023/10/07 06:32:43;;;;;;;7.65;2.10;;;20.30;74.90;;;;;;6279589;22;20019;-65
2023/10/07 06:34:41;;;;;;;8.60;2.63;;;20.30;74.90;;;;;;6267004;22;20050;-65
2023/10/07 06:37:07;;;;;;;7.88;2.10;;;20.40;75.00;;;;;;6279261;22;20350;-64
2023/10/07 06:39:32;;;;;;;6.32;2.10;;;20.40;75.00;;;;;;6279439;22;20028;-64
2023/10/07 06:41:58;;;;;;;4.70;2.17;;;20.40;75.00;;;;;;6305976;22;20340;-65
2023/10/07 06:44:24;;;;;;;6.35;2.00;;;20.40;75.10;;;;;;6306043;22;20023;-65
2023/10/07 06:46:55;;;;;;;7.35;1.88;;;20.40;75.10;;;;;;6279619;22;20019;-64
2023/10/07 06:49:21;;;;;;;7.57;2.05;;;20.40;75.10;;;;;;6278157;22;20098;-63
2023/10/07 06:51:57;;;;;;;7.82;2.28;;;20.40;75.10;;;;;;6304415;22;20042;-64
2023/10/07 06:54:24;;;;;;;7.05;2.40;;;20.40;75.10;;;;;;6278398;22;20443;-63
2023/10/07 06:56:51;;;;;;;7.05;2.03;;;20.40;75.10;;;;;;6304661;22;20065;-63
2023/10/07 06:59:17;;;;;;;4.75;2.22;;;20.40;75.20;;;;;;6305092;22;20015;-64
2023/10/07 07:04:14;;;;;;;5.90;2.08;;;20.40;75.20;;;;;;6279582;22;20026;-64
2023/10/07 07:06:43;;;;;;;7.07;1.90;;;20.40;75.20;;;;;;6281388;22;20026;-63
2023/10/07 07:09:41;;;;;;;6.88;2.00;;;20.40;75.20;;;;;;6280657;22;20090;-63
2023/10/07 07:11:58;;;;;;;7.97;2.22;;;20.50;75.30;;;;;;6279456;22;20094;-63
2023/10/07 07:14:28;;;;;;;7.93;2.50;;;20.50;75.30;;;;;;6279370;22;20019;-63
2023/10/07 07:16:57;;;;;;;7.95;1.92;;;20.50;75.30;;;;;;6280589;22;20019;-63
2023/10/07 07:19:23;;;;;;;8.50;2.38;;;20.50;75.30;;;;;;6280608;22;20391;-63
2023/10/07 07:21:49;;;;;;;8.48;2.00;;;20.50;75.30;;;;;;6281220;22;20023;-63
2023/10/07 07:24:21;;;;;;;5.35;1.95;;;20.50;75.30;;;;;;6280020;22;20015;-63
2023/10/07 07:26:51;;;;;;;5.32;2.15;;;20.50;75.30;;;;;;6281180;22;20350;-63
2023/10/07 07:29:23;;;;;;;7.00;2.05;;;20.50;75.30;;;;;;6280594;22;20019;-63
2023/10/07 07:31:49;;;;;;;6.85;2.72;;;20.50;75.30;;;;;;6307173;22;20443;-63
2023/10/07 07:34:27;;;;;;;8.65;2.20;;;20.50;75.40;;;;;;6280353;22;20074;-63
2023/10/07 07:37:04;;;;;;;7.97;2.35;;;20.50;75.50;;;;;;6280637;22;20038;-64
2023/10/07 07:39:30;;;;;;;8.73;2.00;;;20.50;75.50;;;;;;6279179;22;20023;-63
2023/10/07 07:41:59;;;;;;;6.60;2.10;;;20.50;75.50;;;;;;6280882;22;20026;-64
2023/10/07 07:44:34;;;;;;;8.70;2.30;;;20.50;75.60;;;;;;6280301;22;20019;-63
2023/10/07 07:47:03;;;;;;;9.60;2.97;;;20.50;75.60;;;;;;6307542;22;20023;-64
2023/10/07 07:49:32;;;;;;;10.45;2.72;;;20.50;75.60;;;;;;6308305;22;20015;-64
2023/10/07 07:52:01;;;;;;;7.30;2.25;;;20.60;75.70;;;;;;6280244;22;20046;-65
2023/10/07 07:54:26;;;;;;;8.85;2.25;;;20.60;75.70;;;;;;6279477;22;20385;-63
2023/10/07 07:56:54;;;;;;;5.95;2.30;;;20.60;75.70;;;;;;6281097;22;20513;-64
2023/10/07 07:59:20;;;;;;;6.53;2.15;;;20.60;75.80;;;;;;6279691;22;20038;-64
2023/10/07 08:01:53;;;;;;;7.28;2.20;;;20.60;75.80;;;;;;6275560;22;20439;-63
2023/10/07 08:04:37;;;;;;;5.95;2.42;;;20.60;75.80;;;;;;6274409;22;20020;-64
2023/10/07 08:07:06;;;;;;;10.93;2.53;;;20.60;75.80;;;;;;6273417;22;20019;-65
2023/10/07 08:09:36;;;;;;;9.57;2.33;;;20.60;75.70;;;;;;6275299;22;20015;-64
2023/10/07 08:12:05;;;;;;;7.43;2.20;;;20.60;75.80;;;;;;6274994;22;20106;-65
2023/10/07 08:14:33;;;;;;;5.28;2.20;;;20.60;75.80;;;;;;6275862;22;20015;-65
2023/10/07 08:17:00;;;;;;;8.45;2.50;;;20.70;75.80;;;;;;6275704;22;20094;-65
2023/10/07 08:19:25;;;;;;;6.03;2.55;;;20.60;75.80;;;;;;6275068;22;20482;-65
2023/10/07 08:21:51;;;;;;;10.13;2.80;;;20.60;75.70;;;;;;6274760;22;20019;-65
2023/10/07 08:24:20;;;;;;;7.97;2.50;;;20.60;75.70;;;;;;6274940;22;20433;-65
2023/10/07 08:26:55;;;;;;;5.97;2.55;;;20.60;75.70;;;;;;6275363;22;20071;-64
2023/10/07 08:29:34;;;;;;;5.97;2.33;;;20.70;75.70;;;;;;6275752;22;20023;-64
2023/10/07 08:32:29;;;;;;;6.10;2.05;;;20.70;75.70;;;;;;6275382;22;20433;-64
2023/10/07 08:34:59;;;;;;;7.60;2.28;;;20.60;75.60;;;;;;6274359;22;20430;-64
2023/10/07 08:37:32;;;;;;;10.30;2.45;;;20.60;75.60;;;;;;6275172;22;20055;-64
2023/10/07 08:40:26;;;;;;;10.38;2.50;;;20.60;75.60;;;;;;6275335;22;20023;-64
2023/10/07 08:43:04;;;;;;;9.40;2.45;;;20.70;75.60;;;;;;6274545;22;20455;-64
2023/10/07 08:45:30;;;;;;;7.53;2.33;;;20.70;75.60;;;;;;6251886;22;20314;-63
2023/10/07 08:48:08;;;;;;;10.43;2.50;;;20.70;75.60;;;;;;6249879;22;20016;-63
2023/10/07 08:50:55;;;;;;;10.10;2.78;;;20.70;75.50;;;;;;6275524;22;20093;-64
2023/10/07 08:53:28;;;;;;;9.38;2.33;;;20.70;75.50;;;;;;6275040;22;20340;-64
2023/10/07 08:55:56;;;;;;;7.65;2.53;;;20.70;75.50;;;;;;6249821;22;20352;-64
2023/10/07 08:58:26;;;;;;;14.77;4.00;;;20.60;75.50;;;;;;6274924;22;20019;-71
2023/10/07 09:00:52;;;;;;;17.77;3.67;;;20.70;75.60;;;;;;6292943;22;20097;-63
2023/10/07 09:03:19;;;;;;;12.40;3.38;;;20.60;75.60;;;;;;6306468;22;20047;-63
2023/10/07 09:05:46;;;;;;;9.02;3.33;;;20.60;75.70;;;;;;6280917;22;20424;-62
2023/10/07 09:08:12;;;;;;;12.48;3.30;;;20.70;75.70;;;;;;6307768;22;20073;-63
2023/10/07 09:10:38;;;;;;;13.05;3.92;;;20.70;75.80;;;;;;6279279;22;20023;-63
2023/10/07 09:13:05;;;;;;;13.43;3.60;;;20.70;75.90;;;;;;6307874;22;20466;-64
2023/10/07 09:15:35;;;;;;;12.52;3.80;;;20.70;75.90;;;;;;6307200;22;20090;-63
2023/10/07 09:18:03;;;;;;;9.95;3.85;;;20.70;75.90;;;;;;6306428;22;20516;-63
2023/10/07 09:20:31;;;;;;;14.10;4.13;;;20.70;75.90;;;;;;6307407;22;20054;-63
2023/10/07 09:23:01;;;;;;;11.67;3.63;;;20.70;75.90;;;;;;6280270;22;20042;-64
2023/10/07 09:25:33;;;;;;;11.38;3.40;;;20.70;76.60;;;;;;6306495;22;20100;-63
2023/10/07 09:28:01;;;;;;;12.40;3.42;;;20.70;76.00;;;;;;6279995;22;20019;-62
2023/10/07 09:33:17;;;;;;;20.00;3.65;;;20.80;76.00;;;;;;6278941;22;20447;-64
2023/10/07 09:35:47;;;;;;;11.60;3.65;;;20.70;75.90;;;;;;6279986;22;20015;-64
2023/10/07 09:38:33;;;;;;;14.32;3.83;;;20.70;75.90;;;;;;6278825;22;20022;-64
2023/10/07 09:41:12;;;;;;;10.00;2.83;;;20.70;75.80;;;;;;6307332;22;20015;-65
2023/10/07 09:43:43;;;;;;;12.50;3.30;;;20.80;75.80;;;;;;6279872;22;20395;-70
2023/10/07 09:46:10;;;;;;;15.10;3.70;;;20.80;75.80;;;;;;6278635;22;20154;-64
2023/10/07 09:48:41;;;;;;;10.45;3.38;;;20.80;75.80;;;;;;6279777;22;20435;-64
2023/10/07 09:51:14;;;;;;;13.55;3.58;;;20.80;75.80;;;;;;6254884;22;20030;-63
2023/10/07 09:53:52;;;;;;;14.40;3.20;;;20.80;75.80;;;;;;6279045;22;20351;-65
2023/10/07 09:56:39;;;;;;;12.35;3.20;;;20.80;75.90;;;;;;6254702;22;20070;-64
2023/10/07 09:59:36;;;;;;;12.38;3.35;;;20.80;75.90;;;;;;6275956;22;20050;-63
2023/10/07 10:02:24;;;;;;;14.18;3.63;;;20.80;75.90;;;;;;6279651;22;20451;-64
2023/10/07 10:05:12;;;;;;;11.32;3.42;;;20.80;75.90;;;;;;6279145;22;20015;-64
2023/10/07 10:08:11;;;;;;;11.30;3.30;;;20.80;76.00;;;;;;6256218;22;20085;-63
2023/10/07 10:10:44;;;;;;;11.55;3.63;;;20.80;76.00;;;;;;6279680;22;20027;-63
2023/10/07 10:16:14;;;;;;;8.88;3.22;;;20.90;76.00;;;;;;6279114;22;20022;-64
2023/10/07 10:18:53;;;;;;;10.10;2.80;;;20.90;76.00;;;;;;6278730;22;20424;-64
2023/10/07 10:21:22;;;;;;;13.63;3.50;;;20.80;75.90;;;;;;6278133;22;20070;-64
2023/10/07 10:23:51;;;;;;;10.55;3.00;;;20.90;75.90;;;;;;6307245;22;20011;-64
2023/10/07 10:26:21;;;;;;;12.88;2.47;;;20.90;75.90;;;;;;6279215;22;20038;-64
2023/10/07 10:28:59;;;;;;;9.30;2.95;;;20.90;75.80;;;;;;6253361;22;20512;-64
2023/10/07 10:31:32;;;;;;;10.70;3.35;;;20.90;75.90;;;;;;6279127;22;20050;-64
2023/10/07 10:34:08;;;;;;;11.90;3.45;;;20.90;76.00;;;;;;6279036;22;20022;-64
2023/10/07 10:36:38;;;;;;;11.50;3.55;;;20.90;76.00;;;;;;6279250;22;20096;-64
2023/10/07 10:39:13;;;;;;;12.50;3.63;;;20.90;76.00;;;;;;6278765;22;20051;-64
2023/10/07 10:41:39;;;;;;;9.02;3.20;;;20.90;75.90;;;;;;6227761;22;20050;-64
2023/10/07 10:44:10;;;;;;;11.05;3.25;;;20.90;75.80;;;;;;6278861;22;20019;-65
2023/10/07 10:46:51;;;;;;;10.68;3.33;;;20.90;75.80;;;;;;6278631;22;20023;-62
2023/10/07 10:49:24;;;;;;;11.13;3.63;;;20.90;75.70;;;;;;6277643;22;20016;-63
2023/10/07 10:51:54;;;;;;;12.38;3.25;;;20.90;75.70;;;;;;6276911;22;20029;-63
2023/10/07 10:54:21;;;;;;;12.77;3.65;;;20.90;75.80;;;;;;6276667;22;20016;-63
2023/10/07 10:56:55;;;;;;;10.52;3.05;;;20.90;75.80;;;;;;6277338;22;20057;-63
2023/10/07 10:59:22;;;;;;;9.75;3.38;;;20.90;75.80;;;;;;6278351;22;20019;-65
2023/10/07 11:01:50;;;;;;;8.02;2.70;;;20.90;75.70;;;;;;6278417;22;20320;-64
2023/10/07 11:04:21;;;;;;;10.57;3.20;;;20.90;75.80;;;;;;6305138;22;20019;-64
2023/10/07 11:06:51;;;;;;;8.30;3.55;;;21.00;75.80;;;;;;6306650;22;20294;-64
2023/10/07 11:09:26;;;;;;;13.10;2.85;;;21.00;75.80;;;;;;6277768;22;20026;-63
2023/10/07 11:11:55;;;;;;;11.93;3.17;;;21.00;75.70;;;;;;6230071;22;20511;-63
2023/10/07 11:14:21;;;;;;;12.57;3.22;;;21.00;75.70;;;;;;6305851;22;20423;-64
2023/10/07 11:16:47;;;;;;;7.63;2.70;;;21.00;75.60;;;;;;6305798;22;20094;-64
2023/10/07 11:19:14;;;;;;;12.27;3.33;;;21.00;75.60;;;;;;6305549;22;20100;-63
2023/10/07 11:21:41;;;;;;;11.20;3.40;;;21.00;75.50;;;;;;6279223;22;20049;-62
2023/10/07 11:24:07;;;;;;;21.25;4.25;;;21.10;75.50;;;;;;6306026;22;20019;-70
2023/10/07 11:26:33;;;;;;;16.20;4.53;;;21.10;75.60;;;;;;6306438;22;20071;-66
2023/10/07 11:29:10;;;;;;;12.68;3.65;;;21.10;75.60;;;;;;6278741;22;20019;-63
2023/10/07 11:31:37;;;;;;;20.38;4.03;;;21.20;75.70;;;;;;6278525;22;20019;-67
2023/10/07 11:34:04;;;;;;;20.13;3.88;;;21.20;75.80;;;;;;6279163;22;20019;-65
2023/10/07 11:36:40;;;;;;;25.17;4.13;;;21.20;75.90;;;;;;6278724;22;20021;-66
2023/10/07 11:39:08;;;;;;;19.13;4.32;;;21.20;75.90;;;;;;6252311;22;20061;-63
2023/10/07 11:41:35;;;;;;;19.83;4.40;;;21.20;76.00;;;;;;6305520;22;20469;-65
2023/10/07 11:44:03;;;;;;;20.20;4.85;;;21.20;76.00;;;;;;6253909;22;20460;-62
2023/10/07 11:46:29;;;;;;;21.08;4.40;;;21.30;76.10;;;;;;6304152;22;20026;-67
2023/10/07 11:48:56;;;;;;;30.67;4.95;;;21.30;76.70;;;;;;6307965;22;20101;-63
2023/10/07 11:51:23;;;;;;;21.48;4.93;;;21.40;76.20;;;;;;6278761;22;20109;-66
2023/10/07 11:53:50;;;;;;;20.58;4.28;;;21.40;76.20;;;;;;6307423;22;20023;-65
2023/10/07 11:56:15;;;;;;;23.00;4.63;;;21.40;76.10;;;;;;6306808;22;20342;-66
2023/10/07 11:58:42;;;;;;;20.67;4.50;;;21.40;76.00;;;;;;6306787;22;20094;-63
2023/10/07 12:01:07;;;;;;;25.13;4.57;;;21.40;75.90;;;;;;6280560;22;20320;-69
2023/10/07 12:03:34;;;;;;;24.83;4.50;;;21.40;75.80;;;;;;6307861;22;20647;-69
2023/10/07 12:05:59;;;;;;;23.35;4.70;;;21.40;75.80;;;;;;6307156;22;20047;-65
2023/10/07 12:08:26;;;;;;;24.15;4.25;;;21.40;75.80;;;;;;6280584;22;20334;-74
2023/10/07 12:10:52;;;;;;;22.30;4.90;;;21.50;75.70;;;;;;6280734;22;20049;-63
2023/10/07 12:13:19;;;;;;;16.55;4.10;;;21.50;75.60;;;;;;6306060;22;20018;-63
2023/10/07 12:15:45;;;;;;;23.48;4.28;;;21.50;75.60;;;;;;6306053;22;20442;-63
2023/10/07 12:18:13;;;;;;;20.85;4.78;;;21.50;75.50;;;;;;6308043;22;20022;-63
2023/10/07 12:20:39;;;;;;;14.55;3.83;;;21.50;75.30;;;;;;6307184;22;20077;-63
2023/10/07 12:23:07;;;;;;;20.80;4.53;;;21.50;75.20;;;;;;6308390;22;20007;-63
2023/10/07 12:25:35;;;;;;;18.08;4.22;;;21.50;75.20;;;;;;6307674;22;20312;-62
2023/10/07 12:28:05;;;;;;;;;;;21.50;75.20;;;;;;6280189;22;20446;-63
2023/10/07 12:30:31;;;;;;;20.75;4.57;;;21.50;75.10;;;;;;6308122;22;19922;-63
2023/10/07 12:32:57;;;;;;;15.95;3.65;;;21.40;75.10;;;;;;6308296;22;20008;-63
2023/10/07 12:35:23;;;;;;;21.83;4.15;;;21.50;75.00;;;;;;6306568;22;20438;-63
2023/10/07 12:37:52;;;;;;;16.02;4.47;;;21.50;75.60;;;;;;6308245;22;20015;-63
2023/10/07 12:40:17;;;;;;;17.27;4.20;;;21.50;75.00;;;;;;6254605;22;20016;-63
2023/10/07 12:42:44;;;;;;;14.65;3.60;;;21.50;74.90;;;;;;6279205;22;20392;-63
2023/10/07 12:45:11;;;;;;;15.38;3.78;;;21.50;74.90;;;;;;6279410;22;20043;-63
2023/10/07 12:47:42;;;;;;;14.52;3.97;;;21.50;74.80;;;;;;6278512;22;20016;-63
2023/10/07 12:50:24;;;;;;;17.75;3.92;;;21.50;74.70;;;;;;6306620;22;20095;-63
2023/10/07 12:52:59;;;;;;;12.93;3.95;;;21.50;74.60;;;;;;6307367;22;20023;-63
2023/10/07 12:55:31;;;;;;;14.38;3.25;;;21.50;74.60;;;;;;6306249;22;20019;-63
2023/10/07 12:57:57;;;;;;;9.88;3.28;;;21.50;74.50;;;;;;6280220;22;20007;-63
2023/10/07 13:00:22;;;;;;;13.15;3.55;;;21.50;74.40;;;;;;6279059;22;20406;-63
2023/10/07 13:02:53;;;;;;;18.27;3.40;;;21.50;74.40;;;;;;6306403;22;20026;-64
2023/10/07 13:05:19;;;;;;;12.35;3.65;;;21.50;74.40;;;;;;6307672;22;20090;-64
2023/10/07 13:07:48;;;;;;;13.30;3.80;;;21.50;74.30;;;;;;6280321;22;20039;-63
2023/10/07 13:10:15;;;;;;;14.20;3.50;;;21.50;74.30;;;;;;6279020;22;20027;-63
2023/10/07 13:12:41;;;;;;;9.45;3.17;;;21.50;74.20;;;;;;6280298;22;20343;-63
2023/10/07 13:15:14;;;;;;;9.48;3.28;;;21.60;74.20;;;;;;6279514;22;20026;-63
2023/10/07 13:17:45;;;;;;;13.82;4.00;;;21.60;74.10;;;;;;6278776;22;20015;-64
2023/10/07 13:20:20;;;;;;;12.52;3.75;;;21.60;74.00;;;;;;6306543;22;20019;-63
2023/10/07 13:22:53;;;;;;;9.50;3.72;;;21.60;73.90;;;;;;6279174;22;20015;-63
2023/10/07 13:25:19;;;;;;;9.18;3.38;;;21.70;73.80;;;;;;6279499;22;20098;-62
2023/10/07 13:27:48;;;;;;;11.27;3.63;;;21.70;73.70;;;;;;6307798;22;20023;-63